Das Wetter vor meiner Haustuere
Wetterdaten: aktuell Montag, 21.06.2021 21:46
Datum Zeit Aussentemp. Luftfeuchte Luftdruck Regenmenge Wind Sonnenschein Helligkeit T Regendauer
21.06.2021 21:46 21,7 C 66 % 1008 hPa 0,0 mm 12,2 km/h (2 Bft) 6 min 284 lux 0 min
21.06.2021 20:46 24,3 C 60 % 1008 hPa 0,0 mm 18,8 km/h (3 Bft) 6 min 8,02 klux 0 min
21.06.2021 19:46 26,5 C 49 % 1007 hPa 0,0 mm 8,4 km/h (2 Bft) 38 min 8,25 klux 0 min
21.06.2021 18:46 27,7 C 47 % 1007 hPa 0,0 mm 7,7 km/h (2 Bft) 53 min 44,8 klux 0 min
21.06.2021 17:46 27,8 C 48 % 1007 hPa 0,0 mm 10,1 km/h (2 Bft) 60 min 58,7 klux 0 min
21.06.2021 16:46 27,2 C 51 % 1008 hPa 0,0 mm 16,9 km/h (3 Bft) 44 min 77,9 klux 0 min
21.06.2021 15:46 26,9 C 53 % 1008 hPa 0,0 mm 16,0 km/h (3 Bft) 47 min 92,7 klux 0 min
21.06.2021 14:46 25,6 C 60 % 1008 hPa 0,0 mm 16,8 km/h (3 Bft) 18 min 36,4 klux 0 min
21.06.2021 13:46 24,6 C 61 % 1008 hPa 0,0 mm 12,5 km/h (3 Bft) 20 min 103 klux 0 min
21.06.2021 12:46 24,6 C 61 % 1008 hPa 0,0 mm 19,0 km/h (3 Bft) 30 min 110 klux 0 min
21.06.2021 11:46 23,6 C 70 % 1008 hPa 0,0 mm 15,5 km/h (3 Bft) 21 min 39,6 klux 0 min
21.06.2021 10:46 21,7 C 71 % 1008 hPa 0,0 mm 14,3 km/h (3 Bft) 12 min 29,0 klux 0 min
21.06.2021 09:46 21,3 C 75 % 1007 hPa 0,0 mm 12,3 km/h (3 Bft) 15 min 31,3 klux 0 min
21.06.2021 08:46 20,1 C 85 % 1007 hPa 0,0 mm 10,0 km/h (2 Bft) 39 min 21,2 klux 0 min
21.06.2021 07:46 17,3 C 93 % 1007 hPa 0,0 mm 5,4 km/h (1 Bft) 9 min 29,1 klux 0 min
21.06.2021 06:46 16,1 C 93 % 1007 hPa 0,0 mm 9,6 km/h (2 Bft) 15 min 27,1 klux 0 min
21.06.2021 05:46 15,9 C 93 % 1007 hPa 0,0 mm 4,1 km/h (1 Bft) 0 min 2,23 klux 0 min
21.06.2021 04:46 16,3 C 93 % 1006 hPa 0,0 mm 4,3 km/h (1 Bft) 0 min 0 lux 0 min
21.06.2021 03:46 16,9 C 93 % 1006 hPa 0,0 mm 5,0 km/h (1 Bft) 0 min 0 lux 0 min
21.06.2021 02:46 17,2 C 92 % 1006 hPa 0,0 mm 0,4 km/h (0 Bft) 0 min 0 lux 0 min
21.06.2021 01:46 17,4 C 92 % 1005 hPa 0,0 mm 1,4 km/h (1 Bft) 0 min 0 lux 0 min
21.06.2021 00:46 17,5 C 90 % 1005 hPa 0,6 mm 0,0 km/h (0 Bft) 0 min 0 lux 29 min
21.06.2021 00:01 18,1 C 88 % 1007 hPa 0,0 mm 6,7 km/h (2 Bft) 0 min 0 lux 0 min
_ Min-Zeit 05:52 17:55 01:13 - 00:40 - - -
Minimum _ 15,8 C 46 % 1004 hPa - 0,0 km/h (0 Bft) - - -
_ Max-Zeit 18:07 06:22 09:58 00:10 20:52 05:55 14:22 00:01
Maximum _ 28,0 C 94 % 1008 hPa 0,3 mm 33,4 km/h
N-NW (5 Bft)
3 min 124 klux 3 min
Durchschnitt _ 21,6 C 73 % 1008 hPa #0,6 mm 10,8 km/h (2 Bft) #7:13 h 34,2 klux #32 min.
Aufzeichnungsbeginn 21.06.2001